createdAt,value
2023-04-27T00:00:20.930Z,92.99
2023-04-27T00:01:20.928Z,92.64
2023-04-27T00:02:21.046Z,93.19
2023-04-27T00:03:21.184Z,93.19
2023-04-27T00:04:21.266Z,93.19
2023-04-27T00:05:21.114Z,92.58
2023-04-27T00:06:20.958Z,92.23
2023-04-27T00:07:20.911Z,92.54
2023-04-27T00:08:20.910Z,92.99
2023-04-27T00:09:20.908Z,93.15
2023-04-27T00:10:20.906Z,92.84
2023-04-27T00:11:20.898Z,92.64
2023-04-27T00:12:20.927Z,92.84
2023-04-27T00:13:20.897Z,92.64
2023-04-27T00:14:20.909Z,92.58
2023-04-27T00:15:20.892Z,92.64
2023-04-27T00:16:20.985Z,92.94
2023-04-27T00:17:20.912Z,92.84
2023-04-27T00:18:20.900Z,92.13
2023-04-27T00:19:20.888Z,91.82
2023-04-27T00:20:20.897Z,92.02
2023-04-27T00:21:20.875Z,91.92
2023-04-27T00:22:20.879Z,92.08
2023-04-27T00:23:20.893Z,92.13
2023-04-27T00:24:20.873Z,92.02
2023-04-27T00:25:20.868Z,92.33
2023-04-27T00:26:20.868Z,92.02
2023-04-27T00:27:20.865Z,91.98
2023-04-27T00:28:20.864Z,91.92
2023-04-27T00:29:20.860Z,92.23
2023-04-27T00:30:20.861Z,91.92
2023-04-27T00:31:20.961Z,91.82
2023-04-27T00:32:20.873Z,91.61
2023-04-27T00:33:20.847Z,91.52
2023-04-27T00:34:20.871Z,91.11
2023-04-27T00:35:20.842Z,91.61
2023-04-27T00:36:20.853Z,90.90
2023-04-27T00:37:20.839Z,91.52
2023-04-27T00:38:20.835Z,91.82
2023-04-27T00:39:20.852Z,91.67
2023-04-27T00:40:20.837Z,91.88
2023-04-27T00:41:20.829Z,91.92
2023-04-27T00:42:20.832Z,91.31
2023-04-27T00:43:20.828Z,90.90
2023-04-27T00:44:20.825Z,91.20
2023-04-27T00:45:20.823Z,91.20
2023-04-27T00:46:20.837Z,91.41
2023-04-27T00:47:20.864Z,91.11
2023-04-27T00:48:20.833Z,91.31
2023-04-27T00:49:20.808Z,91.20
2023-04-27T00:50:20.858Z,91.82
2023-04-27T00:51:20.804Z,91.20
2023-04-27T00:52:20.817Z,90.80
2023-04-27T00:53:20.812Z,91.11
2023-04-27T00:54:20.816Z,91.27
2023-04-27T00:55:20.793Z,91.00
2023-04-27T00:56:20.800Z,90.49
2023-04-27T00:57:20.795Z,90.90
2023-04-27T00:58:20.790Z,91.16
2023-04-27T00:59:20.792Z,90.90
2023-04-27T01:00:20.792Z,90.90
2023-04-27T01:01:20.871Z,91.20
2023-04-27T01:02:20.891Z,91.00
2023-04-27T01:03:20.875Z,90.90
2023-04-27T01:04:20.863Z,91.11
2023-04-27T01:05:20.776Z,91.82
2023-04-27T01:06:20.798Z,91.11
2023-04-27T01:07:20.770Z,91.20
2023-04-27T01:08:20.765Z,90.90
2023-04-27T01:09:20.772Z,91.00
2023-04-27T01:10:20.766Z,90.90
2023-04-27T01:11:20.759Z,91.11
2023-04-27T01:12:20.754Z,91.20
2023-04-27T01:13:20.762Z,90.90
2023-04-27T01:14:20.749Z,90.84
2023-04-27T01:15:20.755Z,90.80
2023-04-27T01:16:20.818Z,90.70
2023-04-27T01:17:20.745Z,90.70
2023-04-27T01:18:20.748Z,90.70
2023-04-27T01:19:20.740Z,90.59
2023-04-27T01:20:20.745Z,90.49
2023-04-27T01:21:20.743Z,90.39
2023-04-27T01:22:20.752Z,90.49
2023-04-27T01:23:20.738Z,90.49
2023-04-27T01:24:20.733Z,90.29
2023-04-27T01:25:20.732Z,90.80
2023-04-27T01:26:20.742Z,90.59
2023-04-27T01:27:20.728Z,90.39
2023-04-27T01:28:20.722Z,90.39
2023-04-27T01:29:20.722Z,90.59
2023-04-27T01:30:20.713Z,91.00
2023-04-27T01:31:20.734Z,90.39
2023-04-27T01:32:20.707Z,90.70
2023-04-27T01:33:20.718Z,90.80
2023-04-27T01:34:20.714Z,90.84
2023-04-27T01:35:20.715Z,90.29
2023-04-27T01:36:20.708Z,91.00
2023-04-27T01:37:20.704Z,91.11
2023-04-27T01:38:20.733Z,91.00
2023-04-27T01:39:20.702Z,90.43
2023-04-27T01:40:20.703Z,90.59
2023-04-27T01:41:20.698Z,90.39
2023-04-27T01:42:20.689Z,90.29
2023-04-27T01:43:20.689Z,90.49
2023-04-27T01:44:20.689Z,90.29
2023-04-27T01:45:20.690Z,90.19
2023-04-27T01:46:21.054Z,90.12
2023-04-27T01:47:20.690Z,90.02
2023-04-27T01:48:20.689Z,90.12
2023-04-27T01:49:20.686Z,90.08
2023-04-27T01:50:20.712Z,89.98
2023-04-27T01:51:20.688Z,89.78
2023-04-27T01:52:20.671Z,89.78
2023-04-27T01:53:20.671Z,89.88
2023-04-27T01:54:20.692Z,89.78
2023-04-27T01:55:20.664Z,89.98
2023-04-27T01:56:20.668Z,89.72
2023-04-27T01:57:20.669Z,89.82
2023-04-27T01:58:20.659Z,89.92
2023-04-27T01:59:20.676Z,90.53
2023-04-27T02:00:20.663Z,90.84
2023-04-27T02:01:20.709Z,90.33
2023-04-27T02:02:20.833Z,90.02
2023-04-27T02:03:20.867Z,90.23
2023-04-27T02:04:20.842Z,90.43
2023-04-27T02:05:20.676Z,90.43
2023-04-27T02:06:20.647Z,89.92
2023-04-27T02:07:20.650Z,90.33
2023-04-27T02:08:20.639Z,90.02
2023-04-27T02:09:20.636Z,90.33
2023-04-27T02:10:20.655Z,90.53
2023-04-27T02:11:20.634Z,90.23
2023-04-27T02:12:20.637Z,90.23
2023-04-27T02:13:20.631Z,90.74
2023-04-27T02:14:20.625Z,90.02
2023-04-27T02:15:20.626Z,90.43
2023-04-27T02:16:20.665Z,90.64
2023-04-27T02:17:20.630Z,90.94
2023-04-27T02:18:20.629Z,90.84
2023-04-27T02:19:20.628Z,90.74
2023-04-27T02:20:20.610Z,90.74
2023-04-27T02:21:20.610Z,90.64
2023-04-27T02:22:20.610Z,90.84
2023-04-27T02:23:20.608Z,90.84
2023-04-27T02:24:20.597Z,91.05
2023-04-27T02:25:20.602Z,91.05
2023-04-27T02:26:20.623Z,91.25
2023-04-27T02:27:20.621Z,91.15
2023-04-27T02:28:20.593Z,91.35
2023-04-27T02:29:20.598Z,91.15
2023-04-27T02:30:20.588Z,91.15
2023-04-27T02:31:20.633Z,90.84
2023-04-27T02:32:20.579Z,90.94
2023-04-27T02:33:20.580Z,91.15
2023-04-27T02:34:20.587Z,91.76
2023-04-27T02:35:20.608Z,91.86
2023-04-27T02:36:20.585Z,91.56
2023-04-27T02:37:20.571Z,91.25
2023-04-27T02:38:21.002Z,91.56
2023-04-27T02:39:20.580Z,92.37
2023-04-27T02:40:20.570Z,91.66
2023-04-27T02:41:20.570Z,91.66
2023-04-27T02:42:20.584Z,91.96
2023-04-27T02:43:20.565Z,91.25
2023-04-27T02:44:20.561Z,92.07
2023-04-27T02:45:20.553Z,92.11
2023-04-27T02:46:20.603Z,91.66
2023-04-27T02:47:20.551Z,92.11
2023-04-27T02:48:20.549Z,92.99
2023-04-27T02:49:20.551Z,92.27
2023-04-27T02:50:20.546Z,92.17
2023-04-27T02:51:20.543Z,91.86
2023-04-27T02:52:20.530Z,92.68
2023-04-27T02:53:20.541Z,91.66
2023-04-27T02:54:20.538Z,91.56
2023-04-27T02:55:20.531Z,91.86
2023-04-27T02:56:20.528Z,91.96
2023-04-27T02:57:20.528Z,92.07
2023-04-27T02:58:20.547Z,91.76
2023-04-27T02:59:20.523Z,92.21
2023-04-27T03:00:20.519Z,92.42
2023-04-27T03:01:20.608Z,92.62
2023-04-27T03:02:20.691Z,92.17
2023-04-27T03:03:20.692Z,91.76
2023-04-27T03:04:20.705Z,92.07
2023-04-27T03:05:20.511Z,91.66
2023-04-27T03:06:20.505Z,91.96
2023-04-27T03:07:20.501Z,92.11
2023-04-27T03:08:20.496Z,92.42
2023-04-27T03:09:20.506Z,91.70
2023-04-27T03:10:20.492Z,92.11
2023-04-27T03:11:20.491Z,92.72
2023-04-27T03:12:20.501Z,92.01
2023-04-27T03:13:20.493Z,92.52
2023-04-27T03:14:20.847Z,92.72
2023-04-27T03:15:20.486Z,92.11
2023-04-27T03:16:20.524Z,91.70
2023-04-27T03:17:20.478Z,91.60
2023-04-27T03:18:20.477Z,91.76
2023-04-27T03:19:20.474Z,92.68
2023-04-27T03:20:20.481Z,92.17
2023-04-27T03:21:20.470Z,92.17
2023-04-27T03:22:20.469Z,91.56
2023-04-27T03:23:20.467Z,91.96
2023-04-27T03:24:20.463Z,92.01
2023-04-27T03:25:20.466Z,91.86
2023-04-27T03:26:20.456Z,92.07
2023-04-27T03:27:20.458Z,93.03
2023-04-27T03:28:20.450Z,92.27
2023-04-27T03:29:20.453Z,92.47
2023-04-27T03:30:20.474Z,91.60
2023-04-27T03:31:20.500Z,92.47
2023-04-27T03:32:20.454Z,92.07
2023-04-27T03:33:20.448Z,91.46
2023-04-27T03:34:20.462Z,92.07
2023-04-27T03:35:20.456Z,91.86
2023-04-27T03:36:20.438Z,91.46
2023-04-27T03:37:20.438Z,91.66
2023-04-27T03:38:20.429Z,91.29
2023-04-27T03:39:20.441Z,91.15
2023-04-27T03:40:20.428Z,91.15
2023-04-27T03:41:20.425Z,91.35
2023-04-27T03:42:20.424Z,91.56
2023-04-27T03:43:20.420Z,91.66
2023-04-27T03:44:20.428Z,91.05
2023-04-27T03:45:20.416Z,91.80
2023-04-27T03:46:20.474Z,91.60
2023-04-27T03:47:20.443Z,91.66
2023-04-27T03:48:20.409Z,91.60
2023-04-27T03:49:20.406Z,92.07
2023-04-27T03:50:20.425Z,91.70
2023-04-27T03:51:20.417Z,91.96
2023-04-27T03:52:20.428Z,91.56
2023-04-27T03:53:20.399Z,91.56
2023-04-27T03:54:20.396Z,92.07
2023-04-27T03:55:20.395Z,92.01
2023-04-27T03:56:20.394Z,91.39
2023-04-27T03:57:20.394Z,91.46
2023-04-27T03:58:20.385Z,91.86
2023-04-27T03:59:20.405Z,92.27
2023-04-27T04:00:20.382Z,91.96
2023-04-27T04:01:20.538Z,91.96
2023-04-27T04:02:20.484Z,91.56
2023-04-27T04:03:20.582Z,92.27
2023-04-27T04:04:20.547Z,92.78
2023-04-27T04:05:20.472Z,92.58
2023-04-27T04:06:20.367Z,92.52
2023-04-27T04:07:20.373Z,92.72
2023-04-27T04:08:20.366Z,92.68
2023-04-27T04:09:22.719Z,92.37
2023-04-27T04:10:20.370Z,92.11
2023-04-27T04:11:20.358Z,92.68
2023-04-27T04:12:20.360Z,92.11
2023-04-27T04:13:20.354Z,92.11
2023-04-27T04:14:20.361Z,92.88
2023-04-27T04:15:20.356Z,92.07
2023-04-27T04:16:20.385Z,92.17
2023-04-27T04:17:20.350Z,92.58
2023-04-27T04:18:20.374Z,91.86
2023-04-27T04:19:21.948Z,91.46
2023-04-27T04:20:20.338Z,92.07
2023-04-27T04:21:20.348Z,91.96
2023-04-27T04:22:20.340Z,91.66
2023-04-27T04:23:20.333Z,91.76
2023-04-27T04:24:20.336Z,91.46
2023-04-27T04:25:20.331Z,91.35
2023-04-27T04:26:20.320Z,92.27
2023-04-27T04:27:20.322Z,91.56
2023-04-27T04:28:20.322Z,91.56
2023-04-27T04:29:20.322Z,91.66
2023-04-27T04:30:20.317Z,91.25
2023-04-27T04:31:20.347Z,91.35
2023-04-27T04:32:20.315Z,91.46
2023-04-27T04:33:20.311Z,91.92
2023-04-27T04:34:20.320Z,91.86
2023-04-27T04:35:20.308Z,91.11
2023-04-27T04:36:20.300Z,92.07
2023-04-27T04:37:20.302Z,91.25
2023-04-27T04:38:20.300Z,91.76
2023-04-27T04:39:20.297Z,91.46
2023-04-27T04:40:20.290Z,91.25
2023-04-27T04:41:20.292Z,91.66
2023-04-27T04:42:20.288Z,91.76
2023-04-27T04:43:20.288Z,91.25
2023-04-27T04:44:20.288Z,90.94
2023-04-27T04:45:20.290Z,91.25
2023-04-27T04:46:20.365Z,91.56
2023-04-27T04:47:20.277Z,91.66
2023-04-27T04:48:20.314Z,91.25
2023-04-27T04:49:20.279Z,91.05
2023-04-27T04:50:20.302Z,90.80
2023-04-27T04:51:20.280Z,91.00
2023-04-27T04:52:20.264Z,90.90
2023-04-27T04:53:20.282Z,90.80
2023-04-27T04:54:20.261Z,91.00
2023-04-27T04:55:20.264Z,90.39
2023-04-27T04:56:20.258Z,91.11
2023-04-27T04:57:20.259Z,91.20
2023-04-27T04:58:20.268Z,91.31
2023-04-27T04:59:20.268Z,91.00
2023-04-27T05:00:20.248Z,91.11
2023-04-27T05:01:20.299Z,91.11
2023-04-27T05:02:20.316Z,91.00
2023-04-27T05:03:20.394Z,91.11
2023-04-27T05:04:20.652Z,91.67
2023-04-27T05:05:20.244Z,91.31
2023-04-27T05:06:20.271Z,90.70
2023-04-27T05:08:20.241Z,90.55
2023-04-27T05:09:20.253Z,90.25
2023-04-27T05:10:20.231Z,90.35
2023-04-27T05:11:20.233Z,90.81
2023-04-27T05:12:20.243Z,90.96
2023-04-27T05:13:20.241Z,90.71
2023-04-27T05:14:20.227Z,90.51
2023-04-27T05:15:20.229Z,90.04
2023-04-27T05:16:20.267Z,89.79
2023-04-27T05:17:20.257Z,89.79
2023-04-27T05:18:20.245Z,90.20
2023-04-27T05:19:20.211Z,90.20
2023-04-27T05:20:20.780Z,90.00
2023-04-27T05:21:20.206Z,89.90
2023-04-27T05:22:20.235Z,89.90
2023-04-27T05:23:20.199Z,89.59
2023-04-27T05:24:20.206Z,89.59
2023-04-27T05:25:20.205Z,89.49
2023-04-27T05:26:20.201Z,89.49
2023-04-27T05:27:20.199Z,89.45
2023-04-27T05:28:20.191Z,89.45
2023-04-27T05:29:20.187Z,89.75
2023-04-27T05:30:20.202Z,89.39
2023-04-27T05:31:20.265Z,89.39
2023-04-27T05:32:20.186Z,89.90
2023-04-27T05:33:20.188Z,89.49
2023-04-27T05:34:20.191Z,89.45
2023-04-27T05:35:20.178Z,89.14
2023-04-27T05:36:20.178Z,89.45
2023-04-27T05:37:20.170Z,89.45
2023-04-27T05:38:20.205Z,89.45
2023-04-27T05:39:20.175Z,89.45
2023-04-27T05:40:20.169Z,89.00
2023-04-27T05:41:20.170Z,88.63
2023-04-27T05:42:20.181Z,89.04
2023-04-27T05:43:20.168Z,89.40
2023-04-27T05:44:20.170Z,89.65
2023-04-27T05:45:20.225Z,88.73
2023-04-27T05:46:20.255Z,89.45
2023-04-27T05:47:20.163Z,89.75
2023-04-27T05:48:20.158Z,89.61
2023-04-27T05:49:20.154Z,89.81
2023-04-27T05:50:20.159Z,89.65
2023-04-27T05:51:20.150Z,89.75
2023-04-27T05:52:20.153Z,89.51
2023-04-27T05:53:20.150Z,89.71
2023-04-27T05:54:20.167Z,89.81
2023-04-27T05:55:20.145Z,89.40
2023-04-27T05:56:20.146Z,89.61
2023-04-27T05:57:20.146Z,89.51
2023-04-27T05:58:20.148Z,89.75
2023-04-27T05:59:20.150Z,89.61
2023-04-27T06:00:20.171Z,89.47
2023-04-27T06:01:20.134Z,89.40
2023-04-27T06:02:20.242Z,89.61
2023-04-27T06:03:20.289Z,89.10
2023-04-27T06:04:20.280Z,89.47
2023-04-27T06:05:20.159Z,89.16
2023-04-27T06:06:20.128Z,88.55
2023-04-27T06:07:20.124Z,88.55
2023-04-27T06:08:20.135Z,88.20
2023-04-27T06:09:20.125Z,88.81
2023-04-27T06:10:20.143Z,88.92
2023-04-27T06:11:20.121Z,88.71
2023-04-27T06:12:20.137Z,88.87
2023-04-27T06:13:20.125Z,88.06
2023-04-27T06:14:20.131Z,88.06
2023-04-27T06:15:20.112Z,87.69
2023-04-27T06:16:20.118Z,87.14
2023-04-27T06:17:20.124Z,87.55
2023-04-27T06:18:20.138Z,87.14
2023-04-27T06:19:20.109Z,86.80
2023-04-27T06:20:20.116Z,86.90
2023-04-27T06:21:20.105Z,87.00
2023-04-27T06:22:20.114Z,86.19
2023-04-27T06:23:20.108Z,86.69
2023-04-27T06:24:20.108Z,86.22
2023-04-27T06:25:20.119Z,86.53
2023-04-27T06:26:20.123Z,86.33
2023-04-27T06:27:20.101Z,86.43
2023-04-27T06:28:20.103Z,86.83
2023-04-27T06:29:20.105Z,86.33
2023-04-27T06:30:20.097Z,86.63
2023-04-27T06:31:20.148Z,86.29
2023-04-27T06:32:20.096Z,86.69
2023-04-27T06:33:20.101Z,86.86
2023-04-27T06:34:20.094Z,86.80
2023-04-27T06:35:20.084Z,86.35
2023-04-27T06:36:20.090Z,86.55
2023-04-27T06:37:20.083Z,85.53
2023-04-27T06:38:20.089Z,84.52
2023-04-27T06:39:20.085Z,84.48
2023-04-27T06:40:20.086Z,84.38
2023-04-27T06:41:20.080Z,84.84
2023-04-27T06:42:20.105Z,84.44
2023-04-27T06:43:20.073Z,84.03
2023-04-27T06:44:20.079Z,83.93
2023-04-27T06:45:20.072Z,83.22
2023-04-27T06:46:20.094Z,84.09
2023-04-27T06:47:20.066Z,82.92
2023-04-27T06:48:20.239Z,82.20
2023-04-27T06:49:20.069Z,83.12
2023-04-27T06:50:20.071Z,83.06
2023-04-27T06:51:20.068Z,83.40
2023-04-27T06:52:20.078Z,84.17
2023-04-27T06:53:20.068Z,83.36
2023-04-27T06:54:20.073Z,83.73
2023-04-27T06:55:20.067Z,83.83
2023-04-27T06:56:20.070Z,83.08
2023-04-27T06:57:20.061Z,83.18
2023-04-27T06:58:20.085Z,82.78
2023-04-27T06:59:20.061Z,82.33
2023-04-27T07:00:20.078Z,82.12
2023-04-27T07:01:20.077Z,81.72
2023-04-27T07:02:20.344Z,81.41
2023-04-27T07:03:20.141Z,80.30
2023-04-27T07:04:20.115Z,80.74
2023-04-27T07:05:20.055Z,80.19
2023-04-27T07:06:20.080Z,81.41
2023-04-27T07:07:20.055Z,80.57
2023-04-27T07:08:20.054Z,80.06
2023-04-27T07:09:27.402Z,79.75
2023-04-27T07:10:20.048Z,79.98
2023-04-27T07:11:20.058Z,80.05
2023-04-27T07:12:20.069Z,78.73
2023-04-27T07:13:20.047Z,78.73
2023-04-27T07:14:20.072Z,78.63
2023-04-27T07:15:20.048Z,77.95
2023-04-27T07:16:20.104Z,78.22
2023-04-27T07:17:20.182Z,79.03
2023-04-27T07:18:20.056Z,78.19
2023-04-27T07:19:20.051Z,78.59
2023-04-27T07:20:20.318Z,76.97
2023-04-27T07:21:20.043Z,76.52
2023-04-27T07:22:20.045Z,76.02
2023-04-27T07:23:20.046Z,75.34
2023-04-27T07:24:20.040Z,75.10
2023-04-27T07:25:20.057Z,75.01
2023-04-27T07:26:20.042Z,75.07
2023-04-27T07:27:20.037Z,75.74
2023-04-27T07:28:20.041Z,74.19
2023-04-27T07:29:27.225Z,73.25
2023-04-27T07:30:20.066Z,72.71
2023-04-27T07:31:20.106Z,73.22
2023-04-27T07:32:20.117Z,72.67
2023-04-27T07:33:20.032Z,72.78
2023-04-27T07:34:20.038Z,73.58
2023-04-27T07:35:20.040Z,73.11
2023-04-27T07:36:20.037Z,72.47
2023-04-27T07:37:20.140Z,73.52
2023-04-27T07:38:20.045Z,72.41
2023-04-27T07:39:20.026Z,71.60
2023-04-27T07:40:20.040Z,71.00
2023-04-27T07:41:20.032Z,70.63
2023-04-27T07:42:20.029Z,69.18
2023-04-27T07:43:20.028Z,69.32
2023-04-27T07:44:20.042Z,69.38
2023-04-27T07:45:20.026Z,69.92
2023-04-27T07:46:20.067Z,71.30
2023-04-27T07:47:20.032Z,71.13
2023-04-27T07:48:20.116Z,70.76
2023-04-27T07:49:20.048Z,71.37
2023-04-27T07:50:20.034Z,71.20
2023-04-27T07:51:20.026Z,72.00
2023-04-27T07:52:20.033Z,70.83
2023-04-27T07:53:20.027Z,69.19
2023-04-27T07:54:20.034Z,66.35
2023-04-27T07:55:20.029Z,66.12
2023-04-27T07:56:20.043Z,66.36
2023-04-27T07:57:20.027Z,65.59
2023-04-27T07:58:20.048Z,65.72
2023-04-27T07:59:20.029Z,66.09
2023-04-27T08:00:20.034Z,65.28
2023-04-27T08:01:21.478Z,66.28
2023-04-27T08:02:20.582Z,66.64
2023-04-27T08:03:20.152Z,67.91
2023-04-27T08:04:20.596Z,68.85
2023-04-27T08:05:20.417Z,68.88
2023-04-27T08:06:20.138Z,69.79
2023-04-27T08:07:20.171Z,69.22
2023-04-27T08:08:20.092Z,68.12
2023-04-27T08:09:20.036Z,70.19
2023-04-27T08:10:20.040Z,69.52
2023-04-27T08:11:20.040Z,68.29
2023-04-27T08:12:20.049Z,69.42
2023-04-27T08:13:20.038Z,69.79
2023-04-27T08:14:20.045Z,69.49
2023-04-27T08:15:20.045Z,70.59
2023-04-27T08:16:20.057Z,70.89
2023-04-27T08:17:20.041Z,72.34
2023-04-27T08:18:20.067Z,72.64
2023-04-27T08:19:20.054Z,72.95
2023-04-27T08:20:20.061Z,72.98
2023-04-27T08:21:20.050Z,72.58
2023-04-27T08:22:20.105Z,72.98
2023-04-27T08:23:20.048Z,72.64
2023-04-27T08:24:20.060Z,73.66
2023-04-27T08:25:20.051Z,73.79
2023-04-27T08:26:20.050Z,74.19
2023-04-27T08:27:20.050Z,73.59
2023-04-27T08:28:20.053Z,73.56
2023-04-27T08:29:27.645Z,74.81
2023-04-27T08:30:20.060Z,75.35
2023-04-27T08:31:20.086Z,75.11
2023-04-27T08:32:20.058Z,74.71
2023-04-27T08:33:20.057Z,75.92
2023-04-27T08:34:20.197Z,74.84
2023-04-27T08:35:20.057Z,75.82
2023-04-27T08:36:20.050Z,76.63
2023-04-27T08:37:20.050Z,75.72
2023-04-27T08:38:20.055Z,75.82
2023-04-27T08:39:20.074Z,75.21
2023-04-27T08:40:20.057Z,76.32
2023-04-27T08:41:21.927Z,76.56
2023-04-27T08:42:20.076Z,75.55
2023-04-27T08:43:20.058Z,75.79
2023-04-27T08:44:20.056Z,76.46
2023-04-27T08:45:20.064Z,75.35
2023-04-27T08:46:20.084Z,74.54
2023-04-27T08:47:25.788Z,74.81
2023-04-27T08:48:20.083Z,76.12
2023-04-27T08:49:20.392Z,75.31
2023-04-27T08:50:20.072Z,73.83
2023-04-27T08:51:20.074Z,74.21
2023-04-27T08:52:20.064Z,75.25
2023-04-27T08:53:20.053Z,75.46
2023-04-27T08:54:20.082Z,75.66
2023-04-27T08:55:20.060Z,76.06
2023-04-27T08:56:20.065Z,75.73
2023-04-27T08:57:20.055Z,75.62
2023-04-27T08:58:20.065Z,76.50
2023-04-27T08:59:20.057Z,75.79
2023-04-27T09:00:20.058Z,75.49
2023-04-27T09:01:20.088Z,75.76
2023-04-27T09:02:20.118Z,74.37
2023-04-27T09:03:20.176Z,74.88
2023-04-27T09:04:20.325Z,74.95
2023-04-27T09:05:20.111Z,75.35
2023-04-27T09:06:20.118Z,73.66
2023-04-27T09:07:20.089Z,75.49
2023-04-27T09:08:20.071Z,74.37
2023-04-27T09:09:20.053Z,75.38
2023-04-27T09:10:20.060Z,74.98
2023-04-27T09:11:20.054Z,74.37
2023-04-27T09:12:20.064Z,75.58
2023-04-27T09:13:20.052Z,74.43
2023-04-27T09:14:20.072Z,73.45
2023-04-27T09:15:20.069Z,71.00
2023-04-27T09:16:20.144Z,71.17
2023-04-27T09:17:20.087Z,70.06
2023-04-27T09:18:20.082Z,69.11
2023-04-27T09:19:20.057Z,69.62
2023-04-27T09:20:20.099Z,70.86
2023-04-27T09:21:20.059Z,69.58
2023-04-27T09:22:20.099Z,70.79
2023-04-27T09:23:20.060Z,70.59
2023-04-27T09:24:20.081Z,70.83
2023-04-27T09:25:20.063Z,70.83
2023-04-27T09:26:20.060Z,69.65
2023-04-27T09:27:20.085Z,70.02
2023-04-27T09:28:20.098Z,70.05
2023-04-27T09:29:20.069Z,71.57
2023-04-27T09:30:20.167Z,71.06
2023-04-27T09:31:20.073Z,72.31
2023-04-27T09:32:20.061Z,72.08
2023-04-27T09:33:20.060Z,71.91
2023-04-27T09:34:20.060Z,72.31
2023-04-27T09:35:20.066Z,72.58
2023-04-27T09:36:20.063Z,72.08
2023-04-27T09:37:20.063Z,71.88
2023-04-27T09:38:20.221Z,72.38
2023-04-27T09:39:20.067Z,71.88
2023-04-27T09:40:20.114Z,71.94
2023-04-27T09:41:20.086Z,73.05
2023-04-27T09:42:20.065Z,73.12
2023-04-27T09:43:20.070Z,72.17
2023-04-27T09:44:20.070Z,71.47
2023-04-27T09:45:20.072Z,68.91
2023-04-27T09:46:20.090Z,68.78
2023-04-27T09:47:20.108Z,66.91
2023-04-27T09:48:20.067Z,65.92
2023-04-27T09:49:20.079Z,68.09
2023-04-27T09:50:20.136Z,65.83
2023-04-27T09:51:20.083Z,63.47
2023-04-27T09:52:20.072Z,63.23
2023-04-27T09:53:20.082Z,61.82
2023-04-27T09:54:20.107Z,63.51
2023-04-27T09:55:20.086Z,64.51
2023-04-27T09:56:20.094Z,65.77
2023-04-27T09:57:20.098Z,66.84
2023-04-27T09:58:20.085Z,67.47
2023-04-27T09:59:20.095Z,67.61
2023-04-27T10:00:20.094Z,67.68
2023-04-27T10:01:20.127Z,68.14
2023-04-27T10:02:25.457Z,69.55
2023-04-27T10:03:20.214Z,69.48
2023-04-27T10:04:20.306Z,69.52
2023-04-27T10:05:20.194Z,70.15
2023-04-27T10:06:20.108Z,70.29
2023-04-27T10:07:20.110Z,70.59
2023-04-27T10:08:20.108Z,71.13
2023-04-27T10:09:20.123Z,71.84
2023-04-27T10:10:20.246Z,71.87
2023-04-27T10:11:20.115Z,71.67
2023-04-27T10:12:20.149Z,72.28
2023-04-27T10:13:20.151Z,73.28
2023-04-27T10:14:20.130Z,72.78
2023-04-27T10:15:20.135Z,72.55
2023-04-27T10:16:20.156Z,73.22
2023-04-27T10:17:20.159Z,71.94
2023-04-27T10:18:20.125Z,70.19
2023-04-27T10:19:20.129Z,70.09
2023-04-27T10:20:20.126Z,67.65
2023-04-27T10:21:20.135Z,65.65
2023-04-27T10:22:20.126Z,66.65
2023-04-27T10:23:20.133Z,65.95
2023-04-27T10:24:20.152Z,66.61
2023-04-27T10:25:20.188Z,65.64
2023-04-27T10:26:20.257Z,66.11
2023-04-27T10:27:20.149Z,66.61
2023-04-27T10:28:20.145Z,67.35
2023-04-27T10:29:20.151Z,67.65
2023-04-27T10:30:20.153Z,66.58
2023-04-27T10:31:20.207Z,67.31
2023-04-27T10:32:20.175Z,67.38
2023-04-27T10:33:20.175Z,66.55
2023-04-27T10:34:21.566Z,66.46
2023-04-27T10:35:20.171Z,62.94
2023-04-27T10:36:20.166Z,64.48
2023-04-27T10:37:20.177Z,61.50
2023-04-27T10:38:20.188Z,61.91
2023-04-27T10:39:20.186Z,61.91
2023-04-27T10:40:20.185Z,60.47
2023-04-27T10:41:20.204Z,58.36
2023-04-27T10:42:20.235Z,58.47
2023-04-27T10:43:20.209Z,58.95
2023-04-27T10:44:20.208Z,59.66
2023-04-27T10:45:20.222Z,60.52
2023-04-27T10:46:20.239Z,61.41
2023-04-27T10:47:20.249Z,61.40
2023-04-27T10:48:20.237Z,60.28
2023-04-27T10:49:20.251Z,62.34
2023-04-27T10:50:20.256Z,63.37
2023-04-27T10:51:20.268Z,63.64
2023-04-27T10:52:20.271Z,63.76
2023-04-27T10:53:20.277Z,64.60
2023-04-27T10:54:20.278Z,65.03
2023-04-27T10:55:20.343Z,65.56
2023-04-27T10:56:20.287Z,65.23
2023-04-27T10:57:20.295Z,65.47
2023-04-27T10:58:20.328Z,66.14
2023-04-27T10:59:20.307Z,65.53
2023-04-27T11:00:20.312Z,64.63
2023-04-27T11:01:20.337Z,66.84
2023-04-27T11:02:20.334Z,64.64
2023-04-27T11:03:20.428Z,63.64
2023-04-27T11:04:20.363Z,63.33
2023-04-27T11:05:20.334Z,63.10
2023-04-27T11:06:20.338Z,61.88
2023-04-27T11:07:20.350Z,59.79
2023-04-27T11:08:20.352Z,58.18
2023-04-27T11:09:20.395Z,56.96
2023-04-27T11:10:20.414Z,58.44
2023-04-27T11:11:20.370Z,58.13
2023-04-27T11:12:20.378Z,55.49
2023-04-27T11:13:20.418Z,51.95
2023-04-27T11:14:20.416Z,55.20
2023-04-27T11:15:20.408Z,53.11
2023-04-27T11:16:20.426Z,54.41
2023-04-27T11:17:20.437Z,55.66
2023-04-27T11:18:20.453Z,57.12
2023-04-27T11:19:20.427Z,57.09
2023-04-27T11:20:20.438Z,57.45
2023-04-27T11:21:20.459Z,57.26
2023-04-27T11:22:20.464Z,56.62
2023-04-27T11:23:20.462Z,55.59
2023-04-27T11:24:20.473Z,57.26
2023-04-27T11:25:20.483Z,56.46
2023-04-27T11:26:20.496Z,56.25
2023-04-27T11:27:20.504Z,53.39
2023-04-27T11:28:20.507Z,52.22
2023-04-27T11:29:20.534Z,53.27
2023-04-27T11:30:20.555Z,54.53
2023-04-27T11:31:20.558Z,55.24
2023-04-27T11:32:20.558Z,55.20
2023-04-27T11:33:20.578Z,54.38
2023-04-27T11:34:20.575Z,55.47
2023-04-27T11:35:20.589Z,54.33
2023-04-27T11:36:20.600Z,53.91
2023-04-27T11:37:20.614Z,54.29
2023-04-27T11:38:20.691Z,55.71
2023-04-27T11:39:20.711Z,54.86
2023-04-27T11:40:22.002Z,57.32
2023-04-27T11:41:20.657Z,57.28
2023-04-27T11:42:20.684Z,57.13
2023-04-27T11:43:20.689Z,58.76
2023-04-27T11:44:20.684Z,59.69
2023-04-27T11:45:20.698Z,60.55
2023-04-27T11:46:20.759Z,59.78
2023-04-27T11:47:20.708Z,61.51
2023-04-27T11:48:20.723Z,62.45
2023-04-27T11:49:20.760Z,61.27
2023-04-27T11:50:20.745Z,61.90
2023-04-27T11:51:20.758Z,62.34
2023-04-27T11:52:20.757Z,60.96
2023-04-27T11:53:20.772Z,60.38
2023-04-27T11:54:20.776Z,60.71
2023-04-27T11:55:20.779Z,62.02
2023-04-27T11:56:20.785Z,60.94
2023-04-27T11:57:20.792Z,60.77
2023-04-27T11:58:20.798Z,62.18
2023-04-27T11:59:20.804Z,62.76
2023-04-27T12:00:20.818Z,64.00
2023-04-27T12:01:27.780Z,64.30
2023-04-27T12:02:20.913Z,63.82
2023-04-27T12:03:21.101Z,64.81
2023-04-27T12:04:21.259Z,65.81
2023-04-27T12:05:21.002Z,64.53
2023-04-27T12:06:32.253Z,65.81
2023-04-27T12:07:20.849Z,66.19
2023-04-27T12:08:20.853Z,66.08
2023-04-27T12:09:20.853Z,66.56
2023-04-27T12:10:20.855Z,65.45
2023-04-27T12:11:20.869Z,65.15
2023-04-27T12:12:20.864Z,65.85
2023-04-27T12:13:20.876Z,65.85
2023-04-27T12:14:20.874Z,64.51
2023-04-27T12:15:20.875Z,64.44
2023-04-27T12:16:20.918Z,63.70
2023-04-27T12:17:20.986Z,64.21
2023-04-27T12:18:20.898Z,62.63
2023-04-27T12:19:20.886Z,63.36
2023-04-27T12:20:20.888Z,64.04
2023-04-27T12:21:20.893Z,64.64
2023-04-27T12:22:20.892Z,64.58
2023-04-27T12:23:20.908Z,64.67
2023-04-27T12:24:20.899Z,65.18
2023-04-27T12:25:20.913Z,65.41
2023-04-27T12:26:20.904Z,65.61
2023-04-27T12:27:20.908Z,66.12
2023-04-27T12:28:20.907Z,64.81
2023-04-27T12:29:20.911Z,65.92
2023-04-27T12:30:20.917Z,65.99
2023-04-27T12:31:20.933Z,65.88
2023-04-27T12:32:20.927Z,65.78
2023-04-27T12:33:20.968Z,65.68
2023-04-27T12:34:20.947Z,64.67
2023-04-27T12:35:20.926Z,65.35
2023-04-27T12:36:20.923Z,66.25
2023-04-27T12:37:20.936Z,65.85
2023-04-27T12:38:20.931Z,66.53
2023-04-27T12:39:20.934Z,65.33
2023-04-27T12:40:20.931Z,64.50
2023-04-27T12:41:20.940Z,63.51
2023-04-27T12:42:20.933Z,61.76
2023-04-27T12:43:20.941Z,59.77
2023-04-27T12:44:20.949Z,59.72
2023-04-27T12:45:20.952Z,58.68
2023-04-27T12:46:20.979Z,60.33
2023-04-27T12:47:40.548Z,59.96
2023-04-27T12:48:20.967Z,61.67
2023-04-27T12:49:20.973Z,62.00
2023-04-27T12:50:20.982Z,61.46
2023-04-27T12:51:20.960Z,61.96
2023-04-27T12:52:20.963Z,62.19
2023-04-27T12:53:20.973Z,61.71